sensor_id;sensor_type;location;lat;lon;timestamp;P1;durP1;ratioP1;P2;durP2;ratioP2
21505;SDS011;10914;48.886;9.394;2023-04-21T00:00:04;61.88;;;56.30;;
21505;SDS011;10914;48.886;9.394;2023-04-21T00:02:33;60.08;;;54.67;;
21505;SDS011;10914;48.886;9.394;2023-04-21T00:05:04;59.25;;;54.17;;
21505;SDS011;10914;48.886;9.394;2023-04-21T00:07:29;57.28;;;52.63;;
21505;SDS011;10914;48.886;9.394;2023-04-21T00:09:54;58.30;;;53.20;;
21505;SDS011;10914;48.886;9.394;2023-04-21T00:12:20;62.05;;;56.47;;
21505;SDS011;10914;48.886;9.394;2023-04-21T00:14:45;57.60;;;53.05;;
21505;SDS011;10914;48.886;9.394;2023-04-21T00:17:10;55.80;;;51.15;;
21505;SDS011;10914;48.886;9.394;2023-04-21T00:19:35;59.15;;;53.95;;
21505;SDS011;10914;48.886;9.394;2023-04-21T00:22:00;61.28;;;56.17;;
21505;SDS011;10914;48.886;9.394;2023-04-21T00:24:26;62.20;;;56.65;;
21505;SDS011;10914;48.886;9.394;2023-04-21T00:26:51;62.83;;;57.63;;
21505;SDS011;10914;48.886;9.394;2023-04-21T00:29:16;62.13;;;56.58;;
21505;SDS011;10914;48.886;9.394;2023-04-21T00:31:42;60.67;;;55.50;;
21505;SDS011;10914;48.886;9.394;2023-04-21T00:34:07;60.63;;;55.45;;
21505;SDS011;10914;48.886;9.394;2023-04-21T00:36:32;62.97;;;57.55;;
21505;SDS011;10914;48.886;9.394;2023-04-21T00:38:57;63.50;;;57.72;;
21505;SDS011;10914;48.886;9.394;2023-04-21T00:41:22;62.83;;;57.00;;
21505;SDS011;10914;48.886;9.394;2023-04-21T00:46:25;62.75;;;56.38;;
21505;SDS011;10914;48.886;9.394;2023-04-21T00:48:50;59.40;;;53.70;;
21505;SDS011;10914;48.886;9.394;2023-04-21T00:51:15;57.92;;;52.90;;
21505;SDS011;10914;48.886;9.394;2023-04-21T00:53:41;61.90;;;55.70;;
21505;SDS011;10914;48.886;9.394;2023-04-21T00:56:06;53.22;;;48.55;;
21505;SDS011;10914;48.886;9.394;2023-04-21T00:58:31;54.97;;;49.53;;
21505;SDS011;10914;48.886;9.394;2023-04-21T01:00:57;55.33;;;49.78;;
21505;SDS011;10914;48.886;9.394;2023-04-21T01:03:23;56.00;;;50.33;;
21505;SDS011;10914;48.886;9.394;2023-04-21T01:05:48;55.30;;;49.80;;
21505;SDS011;10914;48.886;9.394;2023-04-21T01:08:13;58.85;;;52.58;;
21505;SDS011;10914;48.886;9.394;2023-04-21T01:10:39;56.75;;;51.10;;
21505;SDS011;10914;48.886;9.394;2023-04-21T01:13:04;55.00;;;49.40;;
21505;SDS011;10914;48.886;9.394;2023-04-21T01:15:29;53.77;;;48.90;;
21505;SDS011;10914;48.886;9.394;2023-04-21T01:17:55;54.20;;;49.17;;
21505;SDS011;10914;48.886;9.394;2023-04-21T01:20:21;54.97;;;49.70;;
21505;SDS011;10914;48.886;9.394;2023-04-21T01:22:46;56.88;;;50.97;;
21505;SDS011;10914;48.886;9.394;2023-04-21T01:25:11;58.38;;;52.28;;
21505;SDS011;10914;48.886;9.394;2023-04-21T01:27:37;53.40;;;48.33;;
21505;SDS011;10914;48.886;9.394;2023-04-21T01:30:02;55.83;;;49.90;;
21505;SDS011;10914;48.886;9.394;2023-04-21T01:32:28;51.00;;;46.40;;
21505;SDS011;10914;48.886;9.394;2023-04-21T01:34:54;56.40;;;50.28;;
21505;SDS011;10914;48.886;9.394;2023-04-21T01:37:21;59.03;;;52.83;;
21505;SDS011;10914;48.886;9.394;2023-04-21T01:39:50;57.10;;;51.40;;
21505;SDS011;10914;48.886;9.394;2023-04-21T01:42:16;53.10;;;47.83;;
21505;SDS011;10914;48.886;9.394;2023-04-21T01:44:41;56.90;;;50.72;;
21505;SDS011;10914;48.886;9.394;2023-04-21T01:47:07;56.42;;;50.28;;
21505;SDS011;10914;48.886;9.394;2023-04-21T01:49:32;54.65;;;49.17;;
21505;SDS011;10914;48.886;9.394;2023-04-21T01:51:57;54.88;;;49.38;;
21505;SDS011;10914;48.886;9.394;2023-04-21T01:54:22;49.33;;;44.72;;
21505;SDS011;10914;48.886;9.394;2023-04-21T01:56:47;52.17;;;46.70;;
21505;SDS011;10914;48.886;9.394;2023-04-21T01:59:12;51.63;;;46.75;;
21505;SDS011;10914;48.886;9.394;2023-04-21T02:01:38;55.57;;;49.53;;
21505;SDS011;10914;48.886;9.394;2023-04-21T02:04:03;59.15;;;50.72;;
21505;SDS011;10914;48.886;9.394;2023-04-21T02:06:28;60.75;;;52.80;;
21505;SDS011;10914;48.886;9.394;2023-04-21T02:08:55;59.05;;;51.97;;
21505;SDS011;10914;48.886;9.394;2023-04-21T02:11:20;61.28;;;55.03;;
21505;SDS011;10914;48.886;9.394;2023-04-21T02:13:45;53.92;;;49.22;;
21505;SDS011;10914;48.886;9.394;2023-04-21T02:16:11;58.90;;;52.90;;
21505;SDS011;10914;48.886;9.394;2023-04-21T02:18:36;63.55;;;56.85;;
21505;SDS011;10914;48.886;9.394;2023-04-21T02:21:04;61.20;;;55.05;;
21505;SDS011;10914;48.886;9.394;2023-04-21T02:23:32;58.92;;;52.70;;
21505;SDS011;10914;48.886;9.394;2023-04-21T02:25:57;57.72;;;50.92;;
21505;SDS011;10914;48.886;9.394;2023-04-21T02:28:22;53.37;;;47.80;;
21505;SDS011;10914;48.886;9.394;2023-04-21T02:30:47;50.92;;;46.15;;
21505;SDS011;10914;48.886;9.394;2023-04-21T02:33:13;54.15;;;48.55;;
21505;SDS011;10914;48.886;9.394;2023-04-21T02:35:38;56.83;;;50.63;;
21505;SDS011;10914;48.886;9.394;2023-04-21T02:38:03;56.85;;;50.65;;
21505;SDS011;10914;48.886;9.394;2023-04-21T02:40:31;54.10;;;48.58;;
21505;SDS011;10914;48.886;9.394;2023-04-21T02:42:56;51.38;;;46.05;;
21505;SDS011;10914;48.886;9.394;2023-04-21T02:45:21;50.85;;;45.85;;
21505;SDS011;10914;48.886;9.394;2023-04-21T02:47:47;49.40;;;44.65;;
21505;SDS011;10914;48.886;9.394;2023-04-21T02:50:12;49.70;;;45.08;;
21505;SDS011;10914;48.886;9.394;2023-04-21T02:52:37;47.55;;;43.15;;
21505;SDS011;10914;48.886;9.394;2023-04-21T02:55:02;53.60;;;48.08;;
21505;SDS011;10914;48.886;9.394;2023-04-21T02:57:28;50.38;;;45.28;;
21505;SDS011;10914;48.886;9.394;2023-04-21T02:59:53;48.75;;;43.90;;
21505;SDS011;10914;48.886;9.394;2023-04-21T03:02:19;45.35;;;41.10;;
21505;SDS011;10914;48.886;9.394;2023-04-21T03:04:44;48.85;;;43.95;;
21505;SDS011;10914;48.886;9.394;2023-04-21T03:07:12;48.78;;;43.95;;
21505;SDS011;10914;48.886;9.394;2023-04-21T03:09:38;45.72;;;41.50;;
21505;SDS011;10914;48.886;9.394;2023-04-21T03:12:03;50.53;;;45.20;;
21505;SDS011;10914;48.886;9.394;2023-04-21T03:14:28;51.25;;;45.90;;
21505;SDS011;10914;48.886;9.394;2023-04-21T03:16:53;51.47;;;46.60;;
21505;SDS011;10914;48.886;9.394;2023-04-21T03:19:19;52.92;;;47.65;;
21505;SDS011;10914;48.886;9.394;2023-04-21T03:21:44;53.53;;;48.13;;
21505;SDS011;10914;48.886;9.394;2023-04-21T03:24:10;49.20;;;44.53;;
21505;SDS011;10914;48.886;9.394;2023-04-21T03:26:37;50.00;;;45.28;;
21505;SDS011;10914;48.886;9.394;2023-04-21T03:29:02;46.35;;;42.65;;
21505;SDS011;10914;48.886;9.394;2023-04-21T03:31:27;50.97;;;46.47;;
21505;SDS011;10914;48.886;9.394;2023-04-21T03:33:53;49.45;;;44.80;;
21505;SDS011;10914;48.886;9.394;2023-04-21T03:36:18;53.13;;;48.20;;
21505;SDS011;10914;48.886;9.394;2023-04-21T03:38:43;58.47;;;52.57;;
21505;SDS011;10914;48.886;9.394;2023-04-21T03:41:08;58.50;;;53.15;;
21505;SDS011;10914;48.886;9.394;2023-04-21T03:43:33;61.28;;;55.83;;
21505;SDS011;10914;48.886;9.394;2023-04-21T03:46:00;55.78;;;50.10;;
21505;SDS011;10914;48.886;9.394;2023-04-21T03:48:26;64.80;;;59.20;;
21505;SDS011;10914;48.886;9.394;2023-04-21T03:50:51;54.15;;;48.08;;
21505;SDS011;10914;48.886;9.394;2023-04-21T03:53:16;55.17;;;49.08;;
21505;SDS011;10914;48.886;9.394;2023-04-21T03:55:42;61.83;;;46.30;;
21505;SDS011;10914;48.886;9.394;2023-04-21T03:58:07;53.75;;;47.85;;
21505;SDS011;10914;48.886;9.394;2023-04-21T04:00:32;52.17;;;46.65;;
21505;SDS011;10914;48.886;9.394;2023-04-21T04:02:57;54.63;;;46.63;;
21505;SDS011;10914;48.886;9.394;2023-04-21T04:05:22;50.83;;;45.07;;
21505;SDS011;10914;48.886;9.394;2023-04-21T04:07:47;50.60;;;44.97;;
21505;SDS011;10914;48.886;9.394;2023-04-21T04:10:13;53.63;;;44.75;;
21505;SDS011;10914;48.886;9.394;2023-04-21T04:12:38;53.67;;;45.67;;
21505;SDS011;10914;48.886;9.394;2023-04-21T04:15:03;47.85;;;42.65;;
21505;SDS011;10914;48.886;9.394;2023-04-21T04:17:28;46.67;;;42.13;;
21505;SDS011;10914;48.886;9.394;2023-04-21T04:19:53;45.55;;;40.97;;
21505;SDS011;10914;48.886;9.394;2023-04-21T04:22:19;56.50;;;46.83;;
21505;SDS011;10914;48.886;9.394;2023-04-21T04:24:44;50.38;;;44.22;;
21505;SDS011;10914;48.886;9.394;2023-04-21T04:27:10;50.70;;;44.67;;
21505;SDS011;10914;48.886;9.394;2023-04-21T04:29:38;53.47;;;44.78;;
21505;SDS011;10914;48.886;9.394;2023-04-21T04:32:03;48.25;;;43.05;;
21505;SDS011;10914;48.886;9.394;2023-04-21T04:34:30;48.72;;;43.50;;
21505;SDS011;10914;48.886;9.394;2023-04-21T04:36:56;46.92;;;42.08;;
21505;SDS011;10914;48.886;9.394;2023-04-21T04:39:22;46.17;;;41.60;;
21505;SDS011;10914;48.886;9.394;2023-04-21T04:41:48;45.38;;;40.67;;
21505;SDS011;10914;48.886;9.394;2023-04-21T04:44:14;49.80;;;44.33;;
21505;SDS011;10914;48.886;9.394;2023-04-21T04:46:40;51.03;;;45.35;;
21505;SDS011;10914;48.886;9.394;2023-04-21T04:49:05;48.58;;;43.42;;
21505;SDS011;10914;48.886;9.394;2023-04-21T04:51:30;47.72;;;42.55;;
21505;SDS011;10914;48.886;9.394;2023-04-21T04:53:56;48.92;;;43.80;;
21505;SDS011;10914;48.886;9.394;2023-04-21T04:56:21;48.38;;;43.42;;
21505;SDS011;10914;48.886;9.394;2023-04-21T04:58:47;50.17;;;44.97;;
21505;SDS011;10914;48.886;9.394;2023-04-21T05:01:13;48.47;;;43.85;;
21505;SDS011;10914;48.886;9.394;2023-04-21T05:03:38;48.40;;;43.65;;
21505;SDS011;10914;48.886;9.394;2023-04-21T05:06:04;54.65;;;49.22;;
21505;SDS011;10914;48.886;9.394;2023-04-21T05:08:29;55.33;;;49.97;;
21505;SDS011;10914;48.886;9.394;2023-04-21T05:10:57;55.05;;;50.17;;
21505;SDS011;10914;48.886;9.394;2023-04-21T05:13:22;54.55;;;49.30;;
21505;SDS011;10914;48.886;9.394;2023-04-21T05:15:47;54.50;;;49.20;;
21505;SDS011;10914;48.886;9.394;2023-04-21T05:18:13;53.85;;;48.88;;
21505;SDS011;10914;48.886;9.394;2023-04-21T05:20:41;50.00;;;45.30;;
21505;SDS011;10914;48.886;9.394;2023-04-21T05:23:06;51.17;;;46.17;;
21505;SDS011;10914;48.886;9.394;2023-04-21T05:25:32;50.55;;;45.65;;
21505;SDS011;10914;48.886;9.394;2023-04-21T05:27:57;56.85;;;51.08;;
21505;SDS011;10914;48.886;9.394;2023-04-21T05:30:22;53.78;;;48.67;;
21505;SDS011;10914;48.886;9.394;2023-04-21T05:32:47;52.40;;;47.63;;
21505;SDS011;10914;48.886;9.394;2023-04-21T05:35:13;49.97;;;45.42;;
21505;SDS011;10914;48.886;9.394;2023-04-21T05:37:38;55.63;;;50.20;;
21505;SDS011;10914;48.886;9.394;2023-04-21T05:40:03;64.93;;;59.05;;
21505;SDS011;10914;48.886;9.394;2023-04-21T05:42:29;47.22;;;42.60;;
21505;SDS011;10914;48.886;9.394;2023-04-21T05:44:54;47.40;;;42.70;;
21505;SDS011;10914;48.886;9.394;2023-04-21T05:47:19;49.58;;;44.60;;
21505;SDS011;10914;48.886;9.394;2023-04-21T05:49:44;46.95;;;42.40;;
21505;SDS011;10914;48.886;9.394;2023-04-21T05:52:13;44.85;;;40.53;;
21505;SDS011;10914;48.886;9.394;2023-04-21T05:54:39;45.75;;;41.58;;
21505;SDS011;10914;48.886;9.394;2023-04-21T05:57:04;48.65;;;43.63;;
21505;SDS011;10914;48.886;9.394;2023-04-21T05:59:32;42.88;;;39.00;;
21505;SDS011;10914;48.886;9.394;2023-04-21T06:01:57;44.40;;;40.40;;
21505;SDS011;10914;48.886;9.394;2023-04-21T06:04:23;46.92;;;42.25;;
21505;SDS011;10914;48.886;9.394;2023-04-21T06:06:48;46.47;;;42.03;;
21505;SDS011;10914;48.886;9.394;2023-04-21T06:09:13;44.22;;;40.20;;
21505;SDS011;10914;48.886;9.394;2023-04-21T06:11:39;48.30;;;43.70;;
21505;SDS011;10914;48.886;9.394;2023-04-21T06:14:05;44.38;;;40.35;;
21505;SDS011;10914;48.886;9.394;2023-04-21T06:16:30;46.30;;;42.00;;
21505;SDS011;10914;48.886;9.394;2023-04-21T06:18:58;46.00;;;41.67;;
21505;SDS011;10914;48.886;9.394;2023-04-21T06:21:23;43.33;;;39.30;;
21505;SDS011;10914;48.886;9.394;2023-04-21T06:23:48;44.85;;;40.50;;
21505;SDS011;10914;48.886;9.394;2023-04-21T06:26:14;44.00;;;40.03;;
21505;SDS011;10914;48.886;9.394;2023-04-21T06:28:39;42.50;;;38.65;;
21505;SDS011;10914;48.886;9.394;2023-04-21T06:31:04;43.22;;;39.40;;
21505;SDS011;10914;48.886;9.394;2023-04-21T06:33:30;41.35;;;37.83;;
21505;SDS011;10914;48.886;9.394;2023-04-21T06:35:56;42.35;;;38.65;;
21505;SDS011;10914;48.886;9.394;2023-04-21T06:38:21;42.42;;;38.67;;
21505;SDS011;10914;48.886;9.394;2023-04-21T06:40:46;44.55;;;40.65;;
21505;SDS011;10914;48.886;9.394;2023-04-21T06:43:12;41.47;;;37.97;;
21505;SDS011;10914;48.886;9.394;2023-04-21T06:45:37;44.05;;;40.17;;
21505;SDS011;10914;48.886;9.394;2023-04-21T06:48:02;45.67;;;41.83;;
21505;SDS011;10914;48.886;9.394;2023-04-21T06:50:28;46.55;;;42.58;;
21505;SDS011;10914;48.886;9.394;2023-04-21T06:52:53;45.67;;;42.05;;
21505;SDS011;10914;48.886;9.394;2023-04-21T06:55:18;47.03;;;43.08;;
21505;SDS011;10914;48.886;9.394;2023-04-21T06:57:43;48.15;;;44.33;;
21505;SDS011;10914;48.886;9.394;2023-04-21T07:00:09;46.92;;;43.17;;
21505;SDS011;10914;48.886;9.394;2023-04-21T07:02:34;46.97;;;43.22;;
21505;SDS011;10914;48.886;9.394;2023-04-21T07:04:59;46.20;;;42.42;;
21505;SDS011;10914;48.886;9.394;2023-04-21T07:07:25;43.08;;;39.50;;
21505;SDS011;10914;48.886;9.394;2023-04-21T07:09:50;40.47;;;37.28;;
21505;SDS011;10914;48.886;9.394;2023-04-21T07:12:16;40.10;;;36.72;;
21505;SDS011;10914;48.886;9.394;2023-04-21T07:14:41;40.28;;;36.90;;
21505;SDS011;10914;48.886;9.394;2023-04-21T07:17:06;39.20;;;35.97;;
21505;SDS011;10914;48.886;9.394;2023-04-21T07:19:31;38.72;;;35.53;;
21505;SDS011;10914;48.886;9.394;2023-04-21T07:21:57;38.50;;;35.40;;
21505;SDS011;10914;48.886;9.394;2023-04-21T07:24:22;38.17;;;35.28;;
21505;SDS011;10914;48.886;9.394;2023-04-21T07:26:47;37.35;;;34.70;;
21505;SDS011;10914;48.886;9.394;2023-04-21T07:29:12;39.13;;;36.20;;
21505;SDS011;10914;48.886;9.394;2023-04-21T07:31:38;39.67;;;36.65;;
21505;SDS011;10914;48.886;9.394;2023-04-21T07:34:03;39.03;;;36.08;;
21505;SDS011;10914;48.886;9.394;2023-04-21T07:36:28;40.65;;;37.38;;
21505;SDS011;10914;48.886;9.394;2023-04-21T07:38:54;38.05;;;35.13;;
21505;SDS011;10914;48.886;9.394;2023-04-21T07:41:20;38.80;;;35.88;;
21505;SDS011;10914;48.886;9.394;2023-04-21T07:43:45;40.60;;;37.60;;
21505;SDS011;10914;48.886;9.394;2023-04-21T07:46:10;41.78;;;38.38;;
21505;SDS011;10914;48.886;9.394;2023-04-21T07:48:37;39.42;;;36.42;;
21505;SDS011;10914;48.886;9.394;2023-04-21T07:51:03;40.50;;;37.47;;
21505;SDS011;10914;48.886;9.394;2023-04-21T07:53:28;39.78;;;36.90;;
21505;SDS011;10914;48.886;9.394;2023-04-21T07:55:54;40.15;;;37.15;;
21505;SDS011;10914;48.886;9.394;2023-04-21T07:58:20;38.97;;;36.22;;
21505;SDS011;10914;48.886;9.394;2023-04-21T08:00:45;39.60;;;36.72;;
21505;SDS011;10914;48.886;9.394;2023-04-21T08:03:10;39.03;;;36.15;;
21505;SDS011;10914;48.886;9.394;2023-04-21T08:05:36;38.88;;;36.08;;
21505;SDS011;10914;48.886;9.394;2023-04-21T08:08:01;36.85;;;33.80;;
21505;SDS011;10914;48.886;9.394;2023-04-21T08:10:26;36.90;;;34.20;;
21505;SDS011;10914;48.886;9.394;2023-04-21T08:12:51;38.53;;;35.80;;
21505;SDS011;10914;48.886;9.394;2023-04-21T08:15:17;39.40;;;36.85;;
21505;SDS011;10914;48.886;9.394;2023-04-21T08:17:42;43.17;;;40.28;;
21505;SDS011;10914;48.886;9.394;2023-04-21T08:20:08;41.95;;;39.33;;
21505;SDS011;10914;48.886;9.394;2023-04-21T08:22:33;43.47;;;40.78;;
21505;SDS011;10914;48.886;9.394;2023-04-21T08:25:00;39.58;;;36.92;;
21505;SDS011;10914;48.886;9.394;2023-04-21T08:27:25;37.70;;;35.20;;
21505;SDS011;10914;48.886;9.394;2023-04-21T08:29:51;37.80;;;35.22;;
21505;SDS011;10914;48.886;9.394;2023-04-21T08:32:16;37.30;;;34.65;;
21505;SDS011;10914;48.886;9.394;2023-04-21T08:34:47;37.15;;;34.45;;
21505;SDS011;10914;48.886;9.394;2023-04-21T08:37:13;36.35;;;33.75;;
21505;SDS011;10914;48.886;9.394;2023-04-21T08:39:38;35.75;;;33.03;;
21505;SDS011;10914;48.886;9.394;2023-04-21T08:42:03;34.53;;;32.17;;
21505;SDS011;10914;48.886;9.394;2023-04-21T08:44:28;35.17;;;32.60;;
21505;SDS011;10914;48.886;9.394;2023-04-21T08:46:54;31.42;;;29.33;;
21505;SDS011;10914;48.886;9.394;2023-04-21T08:49:19;31.13;;;29.10;;
21505;SDS011;10914;48.886;9.394;2023-04-21T08:51:45;30.25;;;28.25;;
21505;SDS011;10914;48.886;9.394;2023-04-21T08:54:11;30.65;;;28.65;;
21505;SDS011;10914;48.886;9.394;2023-04-21T08:56:36;30.58;;;28.67;;
21505;SDS011;10914;48.886;9.394;2023-04-21T08:59:01;30.25;;;28.35;;
21505;SDS011;10914;48.886;9.394;2023-04-21T09:01:26;29.60;;;27.70;;
21505;SDS011;10914;48.886;9.394;2023-04-21T09:03:51;29.77;;;27.77;;
21505;SDS011;10914;48.886;9.394;2023-04-21T09:06:17;28.97;;;27.17;;
21505;SDS011;10914;48.886;9.394;2023-04-21T09:08:43;29.30;;;27.40;;
21505;SDS011;10914;48.886;9.394;2023-04-21T09:11:09;29.35;;;27.35;;
21505;SDS011;10914;48.886;9.394;2023-04-21T09:13:37;30.10;;;28.17;;
21505;SDS011;10914;48.886;9.394;2023-04-21T09:16:03;29.60;;;27.80;;
21505;SDS011;10914;48.886;9.394;2023-04-21T09:18:29;30.15;;;28.25;;
21505;SDS011;10914;48.886;9.394;2023-04-21T09:21:10;30.55;;;28.48;;
21505;SDS011;10914;48.886;9.394;2023-04-21T09:23:53;28.73;;;26.92;;
21505;SDS011;10914;48.886;9.394;2023-04-21T09:26:19;29.45;;;27.58;;
21505;SDS011;10914;48.886;9.394;2023-04-21T09:28:47;30.00;;;27.75;;
21505;SDS011;10914;48.886;9.394;2023-04-21T09:31:16;29.83;;;27.73;;
21505;SDS011;10914;48.886;9.394;2023-04-21T09:33:55;29.02;;;27.15;;
21505;SDS011;10914;48.886;9.394;2023-04-21T09:36:21;30.58;;;28.48;;
21505;SDS011;10914;48.886;9.394;2023-04-21T09:41:16;30.08;;;28.08;;
21505;SDS011;10914;48.886;9.394;2023-04-21T09:43:41;31.10;;;28.90;;
21505;SDS011;10914;48.886;9.394;2023-04-21T09:46:07;31.00;;;28.85;;
21505;SDS011;10914;48.886;9.394;2023-04-21T09:48:33;30.50;;;28.50;;
21505;SDS011;10914;48.886;9.394;2023-04-21T09:50:59;29.58;;;27.58;;
21505;SDS011;10914;48.886;9.394;2023-04-21T09:53:24;29.85;;;27.77;;
21505;SDS011;10914;48.886;9.394;2023-04-21T09:55:51;30.50;;;28.30;;
21505;SDS011;10914;48.886;9.394;2023-04-21T09:58:19;30.85;;;28.75;;
21505;SDS011;10914;48.886;9.394;2023-04-21T10:00:44;30.35;;;28.25;;
21505;SDS011;10914;48.886;9.394;2023-04-21T10:03:10;31.65;;;29.45;;
21505;SDS011;10914;48.886;9.394;2023-04-21T10:05:37;29.27;;;27.38;;
21505;SDS011;10914;48.886;9.394;2023-04-21T10:08:03;30.08;;;28.08;;
21505;SDS011;10914;48.886;9.394;2023-04-21T10:10:30;32.67;;;30.38;;
21505;SDS011;10914;48.886;9.394;2023-04-21T10:12:57;34.60;;;32.20;;
21505;SDS011;10914;48.886;9.394;2023-04-21T10:18:11;37.67;;;35.20;;
21505;SDS011;10914;48.886;9.394;2023-04-21T10:26:22;34.28;;;32.03;;
21505;SDS011;10914;48.886;9.394;2023-04-21T10:31:16;30.77;;;28.67;;
21505;SDS011;10914;48.886;9.394;2023-04-21T10:34:10;31.20;;;29.15;;
21505;SDS011;10914;48.886;9.394;2023-04-21T10:36:28;31.80;;;29.73;;
21505;SDS011;10914;48.886;9.394;2023-04-21T10:38:59;29.58;;;27.58;;
21505;SDS011;10914;48.886;9.394;2023-04-21T10:41:31;27.42;;;25.63;;
21505;SDS011;10914;48.886;9.394;2023-04-21T10:46:34;28.38;;;26.65;;
21505;SDS011;10914;48.886;9.394;2023-04-21T10:49:10;27.50;;;25.80;;
21505;SDS011;10914;48.886;9.394;2023-04-21T10:54:23;27.50;;;25.75;;
21505;SDS011;10914;48.886;9.394;2023-04-21T10:56:53;25.48;;;23.77;;
21505;SDS011;10914;48.886;9.394;2023-04-21T10:59:18;26.50;;;24.88;;
21505;SDS011;10914;48.886;9.394;2023-04-21T11:01:44;27.63;;;25.92;;
21505;SDS011;10914;48.886;9.394;2023-04-21T11:04:12;27.90;;;26.10;;
21505;SDS011;10914;48.886;9.394;2023-04-21T11:06:38;26.08;;;24.48;;
21505;SDS011;10914;48.886;9.394;2023-04-21T11:09:03;26.60;;;24.88;;
21505;SDS011;10914;48.886;9.394;2023-04-21T11:11:28;26.60;;;24.83;;
21505;SDS011;10914;48.886;9.394;2023-04-21T11:13:54;27.37;;;25.67;;
21505;SDS011;10914;48.886;9.394;2023-04-21T11:16:19;25.53;;;23.93;;
21505;SDS011;10914;48.886;9.394;2023-04-21T11:18:44;25.15;;;23.65;;
21505;SDS011;10914;48.886;9.394;2023-04-21T11:21:11;25.20;;;23.60;;
21505;SDS011;10914;48.886;9.394;2023-04-21T11:23:40;25.15;;;23.55;;
21505;SDS011;10914;48.886;9.394;2023-04-21T11:26:06;25.67;;;23.98;;
21505;SDS011;10914;48.886;9.394;2023-04-21T11:28:31;25.77;;;24.17;;
21505;SDS011;10914;48.886;9.394;2023-04-21T11:30:57;24.33;;;22.73;;
21505;SDS011;10914;48.886;9.394;2023-04-21T11:33:22;23.55;;;22.20;;
21505;SDS011;10914;48.886;9.394;2023-04-21T11:35:48;25.10;;;23.60;;
21505;SDS011;10914;48.886;9.394;2023-04-21T11:38:15;24.90;;;23.40;;
21505;SDS011;10914;48.886;9.394;2023-04-21T11:40:46;25.67;;;24.13;;
21505;SDS011;10914;48.886;9.394;2023-04-21T11:43:11;24.38;;;22.90;;
21505;SDS011;10914;48.886;9.394;2023-04-21T11:45:39;26.70;;;25.10;;
21505;SDS011;10914;48.886;9.394;2023-04-21T11:48:15;24.88;;;23.38;;
21505;SDS011;10914;48.886;9.394;2023-04-21T11:50:45;25.27;;;23.73;;
21505;SDS011;10914;48.886;9.394;2023-04-21T11:53:12;23.90;;;22.50;;
21505;SDS011;10914;48.886;9.394;2023-04-21T11:55:40;24.48;;;22.98;;
21505;SDS011;10914;48.886;9.394;2023-04-21T11:58:06;23.52;;;22.13;;
21505;SDS011;10914;48.886;9.394;2023-04-21T12:00:31;23.08;;;21.67;;
21505;SDS011;10914;48.886;9.394;2023-04-21T12:02:57;23.20;;;21.90;;
21505;SDS011;10914;48.886;9.394;2023-04-21T12:05:22;23.30;;;21.70;;
21505;SDS011;10914;48.886;9.394;2023-04-21T12:07:48;23.98;;;22.48;;
21505;SDS011;10914;48.886;9.394;2023-04-21T12:10:15;22.70;;;21.40;;
21505;SDS011;10914;48.886;9.394;2023-04-21T12:12:41;23.80;;;22.35;;
21505;SDS011;10914;48.886;9.394;2023-04-21T12:15:07;22.42;;;21.13;;
21505;SDS011;10914;48.886;9.394;2023-04-21T12:17:36;22.83;;;21.52;;
21505;SDS011;10914;48.886;9.394;2023-04-21T12:20:06;23.73;;;22.33;;
21505;SDS011;10914;48.886;9.394;2023-04-21T12:22:31;24.05;;;22.65;;
21505;SDS011;10914;48.886;9.394;2023-04-21T12:24:57;23.55;;;22.25;;
21505;SDS011;10914;48.886;9.394;2023-04-21T12:27:22;24.23;;;22.83;;
21505;SDS011;10914;48.886;9.394;2023-04-21T12:29:47;23.05;;;21.65;;
21505;SDS011;10914;48.886;9.394;2023-04-21T12:32:13;21.40;;;20.20;;
21505;SDS011;10914;48.886;9.394;2023-04-21T12:34:39;22.48;;;21.08;;
21505;SDS011;10914;48.886;9.394;2023-04-21T12:37:04;21.10;;;19.80;;
21505;SDS011;10914;48.886;9.394;2023-04-21T12:39:30;21.02;;;19.73;;
21505;SDS011;10914;48.886;9.394;2023-04-21T12:41:55;21.55;;;20.15;;
21505;SDS011;10914;48.886;9.394;2023-04-21T12:44:21;21.65;;;20.35;;
21505;SDS011;10914;48.886;9.394;2023-04-21T12:46:46;22.53;;;21.03;;
21505;SDS011;10914;48.886;9.394;2023-04-21T12:49:13;20.95;;;19.75;;
21505;SDS011;10914;48.886;9.394;2023-04-21T12:51:39;22.15;;;20.75;;
21505;SDS011;10914;48.886;9.394;2023-04-21T12:54:05;22.92;;;21.30;;
21505;SDS011;10914;48.886;9.394;2023-04-21T12:56:30;22.93;;;21.53;;
21505;SDS011;10914;48.886;9.394;2023-04-21T12:58:56;22.33;;;21.02;;
21505;SDS011;10914;48.886;9.394;2023-04-21T13:01:22;22.77;;;21.27;;
21505;SDS011;10914;48.886;9.394;2023-04-21T13:03:48;22.40;;;21.00;;
21505;SDS011;10914;48.886;9.394;2023-04-21T13:06:13;22.60;;;21.30;;
21505;SDS011;10914;48.886;9.394;2023-04-21T13:08:38;22.97;;;21.30;;
21505;SDS011;10914;48.886;9.394;2023-04-21T13:11:03;22.30;;;20.95;;
21505;SDS011;10914;48.886;9.394;2023-04-21T13:13:29;23.50;;;22.08;;
21505;SDS011;10914;48.886;9.394;2023-04-21T13:15:55;22.38;;;20.85;;
21505;SDS011;10914;48.886;9.394;2023-04-21T13:18:20;22.40;;;21.10;;
21505;SDS011;10914;48.886;9.394;2023-04-21T13:20:45;23.58;;;22.08;;
21505;SDS011;10914;48.886;9.394;2023-04-21T13:23:11;21.85;;;20.55;;
21505;SDS011;10914;48.886;9.394;2023-04-21T13:25:38;21.65;;;20.35;;
21505;SDS011;10914;48.886;9.394;2023-04-21T13:28:03;21.50;;;20.30;;
21505;SDS011;10914;48.886;9.394;2023-04-21T13:30:28;21.35;;;20.15;;
21505;SDS011;10914;48.886;9.394;2023-04-21T13:32:54;20.38;;;19.23;;
21505;SDS011;10914;48.886;9.394;2023-04-21T13:35:19;22.67;;;21.20;;
21505;SDS011;10914;48.886;9.394;2023-04-21T13:37:45;22.90;;;21.45;;
21505;SDS011;10914;48.886;9.394;2023-04-21T13:40:10;21.77;;;20.38;;
21505;SDS011;10914;48.886;9.394;2023-04-21T13:42:36;20.70;;;19.48;;
21505;SDS011;10914;48.886;9.394;2023-04-21T13:45:01;19.55;;;18.35;;
21505;SDS011;10914;48.886;9.394;2023-04-21T13:47:30;19.48;;;18.38;;
21505;SDS011;10914;48.886;9.394;2023-04-21T13:49:55;20.92;;;19.35;;
21505;SDS011;10914;48.886;9.394;2023-04-21T13:52:21;20.15;;;19.02;;
21505;SDS011;10914;48.886;9.394;2023-04-21T13:54:46;18.60;;;17.60;;
21505;SDS011;10914;48.886;9.394;2023-04-21T13:57:11;19.73;;;18.53;;
21505;SDS011;10914;48.886;9.394;2023-04-21T13:59:37;19.30;;;18.03;;
21505;SDS011;10914;48.886;9.394;2023-04-21T14:02:02;19.15;;;18.05;;
21505;SDS011;10914;48.886;9.394;2023-04-21T14:04:27;19.60;;;18.40;;
21505;SDS011;10914;48.886;9.394;2023-04-21T14:06:53;20.03;;;18.93;;
21505;SDS011;10914;48.886;9.394;2023-04-21T14:09:19;19.70;;;18.60;;
21505;SDS011;10914;48.886;9.394;2023-04-21T14:11:45;19.05;;;17.92;;
21505;SDS011;10914;48.886;9.394;2023-04-21T14:14:10;19.33;;;18.23;;
21505;SDS011;10914;48.886;9.394;2023-04-21T14:16:35;18.95;;;17.95;;
21505;SDS011;10914;48.886;9.394;2023-04-21T14:19:00;19.35;;;18.25;;
21505;SDS011;10914;48.886;9.394;2023-04-21T14:21:26;18.88;;;17.85;;
21505;SDS011;10914;48.886;9.394;2023-04-21T14:23:51;19.52;;;18.42;;
21505;SDS011;10914;48.886;9.394;2023-04-21T14:26:16;19.83;;;18.70;;
21505;SDS011;10914;48.886;9.394;2023-04-21T14:28:41;18.60;;;17.60;;
21505;SDS011;10914;48.886;9.394;2023-04-21T14:31:07;19.87;;;18.67;;
21505;SDS011;10914;48.886;9.394;2023-04-21T14:33:32;19.17;;;18.15;;